sensor_id;sensor_type;location;lat;lon;timestamp;P1;durP1;ratioP1;P2;durP2;ratioP2
75926;SDS011;64605;48.296;16.416;2022-12-29T00:01:22;19.05;;;13.00;;
75926;SDS011;64605;48.296;16.416;2022-12-29T00:03:47;20.80;;;13.65;;
75926;SDS011;64605;48.296;16.416;2022-12-29T00:06:13;18.75;;;12.00;;
75926;SDS011;64605;48.296;16.416;2022-12-29T00:08:38;20.27;;;12.20;;
75926;SDS011;64605;48.296;16.416;2022-12-29T00:11:08;17.92;;;11.90;;
75926;SDS011;64605;48.296;16.416;2022-12-29T00:13:39;17.83;;;11.98;;
75926;SDS011;64605;48.296;16.416;2022-12-29T00:16:24;18.73;;;11.95;;
75926;SDS011;64605;48.296;16.416;2022-12-29T00:18:50;16.40;;;11.70;;
75926;SDS011;64605;48.296;16.416;2022-12-29T00:21:17;17.95;;;11.45;;
75926;SDS011;64605;48.296;16.416;2022-12-29T00:24:02;17.70;;;12.05;;
75926;SDS011;64605;48.296;16.416;2022-12-29T00:26:47;16.40;;;11.25;;
75926;SDS011;64605;48.296;16.416;2022-12-29T00:29:41;20.42;;;11.65;;
75926;SDS011;64605;48.296;16.416;2022-12-29T00:32:25;17.25;;;11.75;;
75926;SDS011;64605;48.296;16.416;2022-12-29T00:35:11;18.88;;;11.77;;
75926;SDS011;64605;48.296;16.416;2022-12-29T00:37:42;17.75;;;11.98;;
75926;SDS011;64605;48.296;16.416;2022-12-29T00:40:29;18.60;;;12.52;;
75926;SDS011;64605;48.296;16.416;2022-12-29T00:43:13;18.38;;;11.70;;
75926;SDS011;64605;48.296;16.416;2022-12-29T00:45:57;18.98;;;12.85;;
75926;SDS011;64605;48.296;16.416;2022-12-29T00:48:24;19.30;;;12.98;;
75926;SDS011;64605;48.296;16.416;2022-12-29T00:51:08;18.92;;;12.35;;
75926;SDS011;64605;48.296;16.416;2022-12-29T00:53:34;17.95;;;12.15;;
75926;SDS011;64605;48.296;16.416;2022-12-29T00:56:00;18.67;;;12.57;;
75926;SDS011;64605;48.296;16.416;2022-12-29T00:58:28;18.73;;;13.10;;
75926;SDS011;64605;48.296;16.416;2022-12-29T01:01:05;16.60;;;11.98;;
75926;SDS011;64605;48.296;16.416;2022-12-29T01:03:32;24.42;;;14.68;;
75926;SDS011;64605;48.296;16.416;2022-12-29T01:06:02;18.08;;;11.23;;
75926;SDS011;64605;48.296;16.416;2022-12-29T01:08:30;20.15;;;13.00;;
75926;SDS011;64605;48.296;16.416;2022-12-29T01:10:59;20.63;;;12.75;;
75926;SDS011;64605;48.296;16.416;2022-12-29T01:13:26;18.90;;;13.32;;
75926;SDS011;64605;48.296;16.416;2022-12-29T01:15:52;18.27;;;12.40;;
75926;SDS011;64605;48.296;16.416;2022-12-29T01:18:19;17.83;;;12.20;;
75926;SDS011;64605;48.296;16.416;2022-12-29T01:20:45;19.33;;;12.00;;
75926;SDS011;64605;48.296;16.416;2022-12-29T01:23:10;19.20;;;13.50;;
75926;SDS011;64605;48.296;16.416;2022-12-29T01:25:36;19.20;;;12.82;;
75926;SDS011;64605;48.296;16.416;2022-12-29T01:28:02;19.98;;;13.65;;
75926;SDS011;64605;48.296;16.416;2022-12-29T01:30:28;19.25;;;13.18;;
75926;SDS011;64605;48.296;16.416;2022-12-29T01:32:53;19.35;;;12.70;;
75926;SDS011;64605;48.296;16.416;2022-12-29T01:35:19;17.98;;;12.15;;
75926;SDS011;64605;48.296;16.416;2022-12-29T01:37:45;19.40;;;12.77;;
75926;SDS011;64605;48.296;16.416;2022-12-29T01:40:10;23.95;;;13.30;;
75926;SDS011;64605;48.296;16.416;2022-12-29T01:42:36;19.38;;;13.70;;
75926;SDS011;64605;48.296;16.416;2022-12-29T01:45:09;16.30;;;12.20;;
75926;SDS011;64605;48.296;16.416;2022-12-29T01:47:50;18.10;;;12.57;;
75926;SDS011;64605;48.296;16.416;2022-12-29T01:50:29;25.23;;;15.00;;
75926;SDS011;64605;48.296;16.416;2022-12-29T01:53:18;21.92;;;13.93;;
75926;SDS011;64605;48.296;16.416;2022-12-29T01:55:53;18.30;;;12.50;;
75926;SDS011;64605;48.296;16.416;2022-12-29T01:58:22;21.63;;;13.70;;
75926;SDS011;64605;48.296;16.416;2022-12-29T02:00:52;25.27;;;15.13;;
75926;SDS011;64605;48.296;16.416;2022-12-29T02:03:18;16.58;;;12.40;;
75926;SDS011;64605;48.296;16.416;2022-12-29T02:05:54;22.98;;;14.23;;
75926;SDS011;64605;48.296;16.416;2022-12-29T02:08:24;20.52;;;13.73;;
75926;SDS011;64605;48.296;16.416;2022-12-29T02:10:53;21.83;;;13.45;;
75926;SDS011;64605;48.296;16.416;2022-12-29T02:13:20;21.52;;;13.90;;
75926;SDS011;64605;48.296;16.416;2022-12-29T02:21:11;20.58;;;12.55;;
75926;SDS011;64605;48.296;16.416;2022-12-29T02:32:01;22.50;;;15.07;;
75926;SDS011;64605;48.296;16.416;2022-12-29T02:37:23;18.10;;;12.13;;
75926;SDS011;64605;48.296;16.416;2022-12-29T02:40:02;20.15;;;12.98;;
75926;SDS011;64605;48.296;16.416;2022-12-29T02:42:49;23.45;;;14.75;;
75926;SDS011;64605;48.296;16.416;2022-12-29T02:53:07;18.60;;;13.02;;
75926;SDS011;64605;48.296;16.416;2022-12-29T02:55:36;22.85;;;14.73;;
75926;SDS011;64605;48.296;16.416;2022-12-29T03:00:33;21.23;;;13.38;;
75926;SDS011;64605;48.296;16.416;2022-12-29T03:08:30;19.75;;;14.25;;
75926;SDS011;64605;48.296;16.416;2022-12-29T03:11:04;23.20;;;13.52;;
75926;SDS011;64605;48.296;16.416;2022-12-29T03:13:52;20.58;;;13.65;;
75926;SDS011;64605;48.296;16.416;2022-12-29T03:16:47;19.63;;;13.43;;
75926;SDS011;64605;48.296;16.416;2022-12-29T03:19:19;21.80;;;15.02;;
75926;SDS011;64605;48.296;16.416;2022-12-29T03:22:07;19.70;;;14.15;;
75926;SDS011;64605;48.296;16.416;2022-12-29T03:24:53;19.70;;;12.73;;
75926;SDS011;64605;48.296;16.416;2022-12-29T03:27:25;21.60;;;13.80;;
75926;SDS011;64605;48.296;16.416;2022-12-29T03:29:57;19.45;;;13.93;;
75926;SDS011;64605;48.296;16.416;2022-12-29T03:32:28;20.13;;;14.05;;
75926;SDS011;64605;48.296;16.416;2022-12-29T03:35:01;26.90;;;16.70;;
75926;SDS011;64605;48.296;16.416;2022-12-29T03:37:30;19.83;;;14.80;;
75926;SDS011;64605;48.296;16.416;2022-12-29T03:40:01;21.33;;;13.80;;
75926;SDS011;64605;48.296;16.416;2022-12-29T03:42:29;22.67;;;13.95;;
75926;SDS011;64605;48.296;16.416;2022-12-29T03:44:57;22.42;;;14.35;;
75926;SDS011;64605;48.296;16.416;2022-12-29T03:47:23;23.98;;;16.50;;
75926;SDS011;64605;48.296;16.416;2022-12-29T03:49:49;20.60;;;13.18;;
75926;SDS011;64605;48.296;16.416;2022-12-29T03:52:16;20.75;;;12.98;;
75926;SDS011;64605;48.296;16.416;2022-12-29T03:54:42;18.90;;;13.52;;
75926;SDS011;64605;48.296;16.416;2022-12-29T03:57:08;22.88;;;14.40;;
75926;SDS011;64605;48.296;16.416;2022-12-29T03:59:35;22.60;;;13.15;;
75926;SDS011;64605;48.296;16.416;2022-12-29T04:02:00;19.85;;;14.15;;
75926;SDS011;64605;48.296;16.416;2022-12-29T04:04:26;21.08;;;12.75;;
75926;SDS011;64605;48.296;16.416;2022-12-29T04:06:51;20.23;;;14.18;;
75926;SDS011;64605;48.296;16.416;2022-12-29T04:09:17;19.00;;;13.60;;
75926;SDS011;64605;48.296;16.416;2022-12-29T04:11:43;22.02;;;13.38;;
75926;SDS011;64605;48.296;16.416;2022-12-29T04:14:08;19.77;;;13.60;;
75926;SDS011;64605;48.296;16.416;2022-12-29T04:16:34;19.90;;;14.00;;
75926;SDS011;64605;48.296;16.416;2022-12-29T04:19:04;21.02;;;13.45;;
75926;SDS011;64605;48.296;16.416;2022-12-29T04:21:30;22.30;;;14.38;;
75926;SDS011;64605;48.296;16.416;2022-12-29T04:23:56;19.90;;;14.15;;
75926;SDS011;64605;48.296;16.416;2022-12-29T04:26:21;20.00;;;13.30;;
75926;SDS011;64605;48.296;16.416;2022-12-29T04:28:47;20.60;;;13.70;;
75926;SDS011;64605;48.296;16.416;2022-12-29T04:31:13;21.25;;;13.07;;
75926;SDS011;64605;48.296;16.416;2022-12-29T04:33:38;19.33;;;12.02;;
75926;SDS011;64605;48.296;16.416;2022-12-29T04:36:04;19.23;;;13.57;;
75926;SDS011;64605;48.296;16.416;2022-12-29T04:38:30;20.45;;;13.65;;
75926;SDS011;64605;48.296;16.416;2022-12-29T04:40:58;20.10;;;13.18;;
75926;SDS011;64605;48.296;16.416;2022-12-29T04:43:25;21.02;;;13.32;;
75926;SDS011;64605;48.296;16.416;2022-12-29T04:45:51;21.50;;;13.95;;
75926;SDS011;64605;48.296;16.416;2022-12-29T04:48:16;18.88;;;12.63;;
75926;SDS011;64605;48.296;16.416;2022-12-29T04:50:42;19.20;;;13.27;;
75926;SDS011;64605;48.296;16.416;2022-12-29T04:53:08;26.23;;;15.63;;
75926;SDS011;64605;48.296;16.416;2022-12-29T04:55:34;24.80;;;15.13;;
75926;SDS011;64605;48.296;16.416;2022-12-29T04:58:00;23.70;;;14.52;;
75926;SDS011;64605;48.296;16.416;2022-12-29T05:00:25;20.42;;;12.52;;
75926;SDS011;64605;48.296;16.416;2022-12-29T05:02:51;21.73;;;14.98;;
75926;SDS011;64605;48.296;16.416;2022-12-29T05:05:17;22.98;;;14.55;;
75926;SDS011;64605;48.296;16.416;2022-12-29T05:07:43;22.77;;;15.38;;
75926;SDS011;64605;48.296;16.416;2022-12-29T05:10:09;21.83;;;15.25;;
75926;SDS011;64605;48.296;16.416;2022-12-29T05:12:36;22.95;;;15.50;;
75926;SDS011;64605;48.296;16.416;2022-12-29T05:15:03;23.65;;;15.85;;
75926;SDS011;64605;48.296;16.416;2022-12-29T05:17:30;19.33;;;13.00;;
75926;SDS011;64605;48.296;16.416;2022-12-29T05:19:55;21.10;;;13.98;;
75926;SDS011;64605;48.296;16.416;2022-12-29T05:22:21;18.08;;;13.43;;
75926;SDS011;64605;48.296;16.416;2022-12-29T05:24:47;21.70;;;13.70;;
75926;SDS011;64605;48.296;16.416;2022-12-29T05:27:12;21.50;;;13.93;;
75926;SDS011;64605;48.296;16.416;2022-12-29T05:29:38;23.17;;;16.30;;
75926;SDS011;64605;48.296;16.416;2022-12-29T05:32:04;27.15;;;15.52;;
75926;SDS011;64605;48.296;16.416;2022-12-29T05:34:30;23.27;;;14.00;;
75926;SDS011;64605;48.296;16.416;2022-12-29T05:36:56;23.05;;;14.73;;
75926;SDS011;64605;48.296;16.416;2022-12-29T05:39:21;25.58;;;16.48;;
75926;SDS011;64605;48.296;16.416;2022-12-29T05:41:47;21.92;;;14.25;;
75926;SDS011;64605;48.296;16.416;2022-12-29T05:44:12;22.65;;;15.27;;
75926;SDS011;64605;48.296;16.416;2022-12-29T05:46:38;21.92;;;14.90;;
75926;SDS011;64605;48.296;16.416;2022-12-29T05:49:04;22.40;;;14.68;;
75926;SDS011;64605;48.296;16.416;2022-12-29T05:51:30;21.90;;;15.45;;
75926;SDS011;64605;48.296;16.416;2022-12-29T05:53:56;21.15;;;15.43;;
75926;SDS011;64605;48.296;16.416;2022-12-29T05:56:22;24.10;;;15.80;;
75926;SDS011;64605;48.296;16.416;2022-12-29T05:58:47;21.45;;;15.05;;
75926;SDS011;64605;48.296;16.416;2022-12-29T06:01:13;23.85;;;14.98;;
75926;SDS011;64605;48.296;16.416;2022-12-29T06:03:38;21.77;;;14.30;;
75926;SDS011;64605;48.296;16.416;2022-12-29T06:06:04;24.85;;;15.65;;
75926;SDS011;64605;48.296;16.416;2022-12-29T06:08:30;23.98;;;16.05;;
75926;SDS011;64605;48.296;16.416;2022-12-29T06:10:55;21.90;;;15.48;;
75926;SDS011;64605;48.296;16.416;2022-12-29T06:13:21;28.67;;;17.85;;
75926;SDS011;64605;48.296;16.416;2022-12-29T06:15:50;26.02;;;15.40;;
75926;SDS011;64605;48.296;16.416;2022-12-29T06:18:16;27.42;;;16.92;;
75926;SDS011;64605;48.296;16.416;2022-12-29T06:20:42;26.10;;;17.30;;
75926;SDS011;64605;48.296;16.416;2022-12-29T06:23:07;27.95;;;16.52;;
75926;SDS011;64605;48.296;16.416;2022-12-29T06:25:33;27.98;;;17.05;;
75926;SDS011;64605;48.296;16.416;2022-12-29T06:28:00;30.60;;;17.55;;
75926;SDS011;64605;48.296;16.416;2022-12-29T06:30:27;28.88;;;17.85;;
75926;SDS011;64605;48.296;16.416;2022-12-29T06:32:52;28.88;;;17.88;;
75926;SDS011;64605;48.296;16.416;2022-12-29T06:35:19;28.42;;;18.25;;
75926;SDS011;64605;48.296;16.416;2022-12-29T06:37:45;28.38;;;17.92;;
75926;SDS011;64605;48.296;16.416;2022-12-29T06:40:10;29.83;;;18.25;;
75926;SDS011;64605;48.296;16.416;2022-12-29T06:42:36;25.00;;;17.67;;
75926;SDS011;64605;48.296;16.416;2022-12-29T06:45:02;25.83;;;16.92;;
75926;SDS011;64605;48.296;16.416;2022-12-29T06:47:28;31.50;;;18.83;;
75926;SDS011;64605;48.296;16.416;2022-12-29T06:49:54;28.58;;;18.60;;
75926;SDS011;64605;48.296;16.416;2022-12-29T06:52:20;30.17;;;19.58;;
75926;SDS011;64605;48.296;16.416;2022-12-29T06:54:45;26.70;;;18.85;;
75926;SDS011;64605;48.296;16.416;2022-12-29T06:57:11;27.98;;;18.98;;
75926;SDS011;64605;48.296;16.416;2022-12-29T06:59:37;29.40;;;19.42;;
75926;SDS011;64605;48.296;16.416;2022-12-29T07:02:02;28.48;;;18.98;;
75926;SDS011;64605;48.296;16.416;2022-12-29T07:04:28;35.72;;;21.15;;
75926;SDS011;64605;48.296;16.416;2022-12-29T07:06:54;32.08;;;20.08;;
75926;SDS011;64605;48.296;16.416;2022-12-29T07:09:20;33.83;;;21.30;;
75926;SDS011;64605;48.296;16.416;2022-12-29T07:11:45;32.47;;;21.60;;
75926;SDS011;64605;48.296;16.416;2022-12-29T07:14:11;34.03;;;21.50;;
75926;SDS011;64605;48.296;16.416;2022-12-29T07:16:37;34.05;;;20.90;;
75926;SDS011;64605;48.296;16.416;2022-12-29T07:19:03;33.33;;;21.38;;
75926;SDS011;64605;48.296;16.416;2022-12-29T07:21:29;32.80;;;22.10;;
75926;SDS011;64605;48.296;16.416;2022-12-29T07:23:55;34.85;;;22.05;;
75926;SDS011;64605;48.296;16.416;2022-12-29T07:26:21;33.88;;;20.88;;
75926;SDS011;64605;48.296;16.416;2022-12-29T07:28:46;31.40;;;20.88;;
75926;SDS011;64605;48.296;16.416;2022-12-29T07:31:16;29.60;;;19.50;;
75926;SDS011;64605;48.296;16.416;2022-12-29T07:33:44;29.48;;;21.02;;
75926;SDS011;64605;48.296;16.416;2022-12-29T07:36:10;36.45;;;21.80;;
75926;SDS011;64605;48.296;16.416;2022-12-29T07:38:37;36.55;;;22.40;;
75926;SDS011;64605;48.296;16.416;2022-12-29T07:41:03;30.10;;;20.10;;
75926;SDS011;64605;48.296;16.416;2022-12-29T07:43:29;31.05;;;22.27;;
75926;SDS011;64605;48.296;16.416;2022-12-29T07:45:55;35.28;;;21.95;;
75926;SDS011;64605;48.296;16.416;2022-12-29T07:48:20;34.47;;;22.98;;
75926;SDS011;64605;48.296;16.416;2022-12-29T07:50:46;34.78;;;21.67;;
75926;SDS011;64605;48.296;16.416;2022-12-29T07:53:12;40.70;;;24.38;;
75926;SDS011;64605;48.296;16.416;2022-12-29T07:55:38;34.47;;;23.63;;
75926;SDS011;64605;48.296;16.416;2022-12-29T07:58:04;39.65;;;24.92;;
75926;SDS011;64605;48.296;16.416;2022-12-29T08:00:29;36.80;;;25.17;;
75926;SDS011;64605;48.296;16.416;2022-12-29T08:02:55;36.65;;;25.00;;
75926;SDS011;64605;48.296;16.416;2022-12-29T08:05:21;38.80;;;25.17;;
75926;SDS011;64605;48.296;16.416;2022-12-29T08:07:46;45.00;;;24.90;;
75926;SDS011;64605;48.296;16.416;2022-12-29T08:10:12;35.80;;;23.60;;
75926;SDS011;64605;48.296;16.416;2022-12-29T08:12:39;41.13;;;24.63;;
75926;SDS011;64605;48.296;16.416;2022-12-29T08:15:06;39.42;;;25.85;;
75926;SDS011;64605;48.296;16.416;2022-12-29T08:17:32;38.63;;;24.60;;
75926;SDS011;64605;48.296;16.416;2022-12-29T08:19:58;41.88;;;26.20;;
75926;SDS011;64605;48.296;16.416;2022-12-29T08:22:23;43.70;;;26.67;;
75926;SDS011;64605;48.296;16.416;2022-12-29T08:24:49;40.70;;;25.23;;
75926;SDS011;64605;48.296;16.416;2022-12-29T08:27:15;39.03;;;24.63;;
75926;SDS011;64605;48.296;16.416;2022-12-29T08:29:41;41.55;;;25.38;;
75926;SDS011;64605;48.296;16.416;2022-12-29T08:32:06;40.38;;;25.83;;
75926;SDS011;64605;48.296;16.416;2022-12-29T08:34:32;44.83;;;26.92;;
75926;SDS011;64605;48.296;16.416;2022-12-29T08:36:58;44.88;;;27.05;;
75926;SDS011;64605;48.296;16.416;2022-12-29T08:39:23;43.50;;;26.08;;
75926;SDS011;64605;48.296;16.416;2022-12-29T08:41:49;44.45;;;27.45;;
75926;SDS011;64605;48.296;16.416;2022-12-29T08:44:15;42.13;;;27.33;;
75926;SDS011;64605;48.296;16.416;2022-12-29T08:46:41;43.40;;;29.00;;
75926;SDS011;64605;48.296;16.416;2022-12-29T08:49:06;52.75;;;31.15;;
75926;SDS011;64605;48.296;16.416;2022-12-29T08:51:32;52.38;;;31.13;;
75926;SDS011;64605;48.296;16.416;2022-12-29T08:53:58;53.65;;;29.60;;
75926;SDS011;64605;48.296;16.416;2022-12-29T08:56:24;57.45;;;30.13;;
75926;SDS011;64605;48.296;16.416;2022-12-29T08:58:50;56.53;;;30.52;;
75926;SDS011;64605;48.296;16.416;2022-12-29T09:01:16;57.42;;;31.90;;
75926;SDS011;64605;48.296;16.416;2022-12-29T09:03:42;55.90;;;31.70;;
75926;SDS011;64605;48.296;16.416;2022-12-29T09:06:07;48.95;;;29.90;;
75926;SDS011;64605;48.296;16.416;2022-12-29T09:08:33;60.35;;;31.88;;
75926;SDS011;64605;48.296;16.416;2022-12-29T09:11:09;55.28;;;30.50;;
75926;SDS011;64605;48.296;16.416;2022-12-29T09:13:37;56.75;;;31.83;;
75926;SDS011;64605;48.296;16.416;2022-12-29T09:16:03;54.53;;;30.83;;
75926;SDS011;64605;48.296;16.416;2022-12-29T09:18:29;56.05;;;31.33;;
75926;SDS011;64605;48.296;16.416;2022-12-29T09:20:58;58.83;;;33.38;;
75926;SDS011;64605;48.296;16.416;2022-12-29T09:23:25;58.30;;;32.53;;
75926;SDS011;64605;48.296;16.416;2022-12-29T09:25:52;56.22;;;30.98;;
75926;SDS011;64605;48.296;16.416;2022-12-29T09:28:18;60.28;;;31.85;;
75926;SDS011;64605;48.296;16.416;2022-12-29T09:30:44;64.70;;;34.28;;
75926;SDS011;64605;48.296;16.416;2022-12-29T09:33:10;62.95;;;31.67;;
75926;SDS011;64605;48.296;16.416;2022-12-29T09:35:35;57.25;;;31.65;;
75926;SDS011;64605;48.296;16.416;2022-12-29T09:38:01;62.15;;;35.15;;
75926;SDS011;64605;48.296;16.416;2022-12-29T09:40:28;61.15;;;32.85;;
75926;SDS011;64605;48.296;16.416;2022-12-29T09:45:49;59.58;;;32.35;;
75926;SDS011;64605;48.296;16.416;2022-12-29T09:48:23;64.88;;;34.85;;
75926;SDS011;64605;48.296;16.416;2022-12-29T09:50:58;61.58;;;33.75;;
75926;SDS011;64605;48.296;16.416;2022-12-29T09:56:16;63.28;;;33.60;;
75926;SDS011;64605;48.296;16.416;2022-12-29T09:58:45;61.22;;;33.47;;
75926;SDS011;64605;48.296;16.416;2022-12-29T10:04:28;59.53;;;31.63;;
75926;SDS011;64605;48.296;16.416;2022-12-29T10:06:58;60.38;;;34.17;;
75926;SDS011;64605;48.296;16.416;2022-12-29T10:13:00;66.97;;;35.75;;
75926;SDS011;64605;48.296;16.416;2022-12-29T10:15:36;57.47;;;31.83;;
75926;SDS011;64605;48.296;16.416;2022-12-29T10:21:01;63.83;;;34.70;;
75926;SDS011;64605;48.296;16.416;2022-12-29T10:23:35;60.85;;;35.33;;
75926;SDS011;64605;48.296;16.416;2022-12-29T10:26:50;58.08;;;32.15;;
75926;SDS011;64605;48.296;16.416;2022-12-29T10:29:02;60.33;;;32.63;;
75926;SDS011;64605;48.296;16.416;2022-12-29T10:31:37;55.65;;;32.03;;
75926;SDS011;64605;48.296;16.416;2022-12-29T10:34:13;57.13;;;31.88;;
75926;SDS011;64605;48.296;16.416;2022-12-29T10:36:48;60.25;;;33.45;;
75926;SDS011;64605;48.296;16.416;2022-12-29T10:42:14;65.78;;;35.58;;
75926;SDS011;64605;48.296;16.416;2022-12-29T10:44:44;60.72;;;34.80;;
75926;SDS011;64605;48.296;16.416;2022-12-29T10:47:11;63.78;;;36.22;;
75926;SDS011;64605;48.296;16.416;2022-12-29T10:49:41;61.20;;;35.75;;
75926;SDS011;64605;48.296;16.416;2022-12-29T10:52:10;64.97;;;36.33;;
75926;SDS011;64605;48.296;16.416;2022-12-29T10:54:48;61.65;;;35.95;;
75926;SDS011;64605;48.296;16.416;2022-12-29T10:57:28;72.85;;;37.40;;
75926;SDS011;64605;48.296;16.416;2022-12-29T11:00:24;62.67;;;34.10;;
75926;SDS011;64605;48.296;16.416;2022-12-29T11:08:17;64.70;;;35.67;;
75926;SDS011;64605;48.296;16.416;2022-12-29T11:10:46;61.78;;;37.55;;
75926;SDS011;64605;48.296;16.416;2022-12-29T11:13:25;60.60;;;36.17;;
75926;SDS011;64605;48.296;16.416;2022-12-29T11:15:52;67.10;;;38.20;;
75926;SDS011;64605;48.296;16.416;2022-12-29T11:20:56;66.88;;;38.72;;
75926;SDS011;64605;48.296;16.416;2022-12-29T11:31:46;62.55;;;36.60;;
75926;SDS011;64605;48.296;16.416;2022-12-29T11:34:37;62.22;;;37.85;;
75926;SDS011;64605;48.296;16.416;2022-12-29T11:37:44;73.57;;;40.65;;
75926;SDS011;64605;48.296;16.416;2022-12-29T11:42:36;64.85;;;37.40;;
75926;SDS011;64605;48.296;16.416;2022-12-29T11:45:24;63.05;;;37.90;;
75926;SDS011;64605;48.296;16.416;2022-12-29T11:50:32;67.85;;;37.92;;
75926;SDS011;64605;48.296;16.416;2022-12-29T11:53:02;65.95;;;37.33;;
75926;SDS011;64605;48.296;16.416;2022-12-29T11:55:31;65.80;;;39.08;;
75926;SDS011;64605;48.296;16.416;2022-12-29T11:57:58;68.00;;;41.25;;
75926;SDS011;64605;48.296;16.416;2022-12-29T12:00:27;61.72;;;37.30;;
75926;SDS011;64605;48.296;16.416;2022-12-29T12:03:13;62.95;;;38.33;;
75926;SDS011;64605;48.296;16.416;2022-12-29T12:05:51;64.75;;;37.80;;
75926;SDS011;64605;48.296;16.416;2022-12-29T12:08:35;67.80;;;39.92;;
75926;SDS011;64605;48.296;16.416;2022-12-29T12:11:11;64.65;;;38.17;;
75926;SDS011;64605;48.296;16.416;2022-12-29T12:13:43;65.70;;;38.85;;
75926;SDS011;64605;48.296;16.416;2022-12-29T12:16:21;71.95;;;38.80;;
75926;SDS011;64605;48.296;16.416;2022-12-29T12:18:57;61.42;;;38.72;;
75926;SDS011;64605;48.296;16.416;2022-12-29T12:29:52;62.92;;;38.60;;
75926;SDS011;64605;48.296;16.416;2022-12-29T12:35:16;61.08;;;38.08;;
75926;SDS011;64605;48.296;16.416;2022-12-29T12:40:43;63.67;;;36.83;;
75926;SDS011;64605;48.296;16.416;2022-12-29T12:43:28;67.13;;;37.00;;
75926;SDS011;64605;48.296;16.416;2022-12-29T12:49:06;65.47;;;38.80;;
75926;SDS011;64605;48.296;16.416;2022-12-29T12:54:32;62.08;;;38.05;;
75926;SDS011;64605;48.296;16.416;2022-12-29T12:57:33;64.85;;;37.90;;
75926;SDS011;64605;48.296;16.416;2022-12-29T13:00:15;58.38;;;36.70;;
75926;SDS011;64605;48.296;16.416;2022-12-29T13:08:45;59.30;;;34.37;;
75926;SDS011;64605;48.296;16.416;2022-12-29T13:11:23;60.17;;;34.15;;
75926;SDS011;64605;48.296;16.416;2022-12-29T13:16:34;57.30;;;35.50;;
75926;SDS011;64605;48.296;16.416;2022-12-29T13:19:22;56.47;;;33.85;;
75926;SDS011;64605;48.296;16.416;2022-12-29T13:22:04;56.25;;;35.35;;
75926;SDS011;64605;48.296;16.416;2022-12-29T13:30:09;46.88;;;31.92;;
75926;SDS011;64605;48.296;16.416;2022-12-29T13:35:29;53.35;;;31.75;;
75926;SDS011;64605;48.296;16.416;2022-12-29T13:38:26;49.72;;;32.90;;
75926;SDS011;64605;48.296;16.416;2022-12-29T13:41:00;50.95;;;31.95;;
75926;SDS011;64605;48.296;16.416;2022-12-29T13:43:31;49.63;;;32.53;;
75926;SDS011;64605;48.296;16.416;2022-12-29T13:46:01;54.95;;;33.70;;
75926;SDS011;64605;48.296;16.416;2022-12-29T13:48:50;52.00;;;32.63;;
75926;SDS011;64605;48.296;16.416;2022-12-29T13:51:20;52.55;;;33.55;;
75926;SDS011;64605;48.296;16.416;2022-12-29T13:56:37;58.30;;;33.22;;
75926;SDS011;64605;48.296;16.416;2022-12-29T14:02:15;47.83;;;30.75;;
75926;SDS011;64605;48.296;16.416;2022-12-29T14:05:00;49.85;;;32.85;;
75926;SDS011;64605;48.296;16.416;2022-12-29T14:07:29;50.03;;;31.58;;
75926;SDS011;64605;48.296;16.416;2022-12-29T14:10:00;54.67;;;32.90;;
75926;SDS011;64605;48.296;16.416;2022-12-29T14:12:39;52.50;;;32.40;;
75926;SDS011;64605;48.296;16.416;2022-12-29T14:17:35;51.78;;;33.70;;
75926;SDS011;64605;48.296;16.416;2022-12-29T14:20:03;47.63;;;31.60;;
75926;SDS011;64605;48.296;16.416;2022-12-29T14:22:32;49.75;;;32.50;;
75926;SDS011;64605;48.296;16.416;2022-12-29T14:24:58;53.70;;;33.30;;
75926;SDS011;64605;48.296;16.416;2022-12-29T14:29:53;51.03;;;31.73;;
75926;SDS011;64605;48.296;16.416;2022-12-29T14:34:51;51.25;;;34.80;;
75926;SDS011;64605;48.296;16.416;2022-12-29T14:37:30;52.45;;;32.20;;
75926;SDS011;64605;48.296;16.416;2022-12-29T14:42:49;54.58;;;33.08;;
75926;SDS011;64605;48.296;16.416;2022-12-29T14:52:54;53.83;;;33.85;;
75926;SDS011;64605;48.296;16.416;2022-12-29T14:58:30;53.65;;;33.88;;
75926;SDS011;64605;48.296;16.416;2022-12-29T15:01:01;54.90;;;34.75;;
75926;SDS011;64605;48.296;16.416;2022-12-29T15:03:36;54.38;;;32.30;;
75926;SDS011;64605;48.296;16.416;2022-12-29T15:06:09;55.90;;;34.45;;
75926;SDS011;64605;48.296;16.416;2022-12-29T15:08:37;52.53;;;33.00;;
75926;SDS011;64605;48.296;16.416;2022-12-29T15:11:18;55.25;;;33.47;;
75926;SDS011;64605;48.296;16.416;2022-12-29T15:13:46;55.97;;;33.78;;
75926;SDS011;64605;48.296;16.416;2022-12-29T15:16:29;60.15;;;37.22;;
75926;SDS011;64605;48.296;16.416;2022-12-29T15:18:58;50.50;;;31.77;;
75926;SDS011;64605;48.296;16.416;2022-12-29T15:21:29;57.53;;;35.35;;
75926;SDS011;64605;48.296;16.416;2022-12-29T15:23:59;59.40;;;35.00;;
75926;SDS011;64605;48.296;16.416;2022-12-29T15:26:41;57.75;;;35.47;;
75926;SDS011;64605;48.296;16.416;2022-12-29T15:34:20;56.42;;;32.17;;
75926;SDS011;64605;48.296;16.416;2022-12-29T15:36:46;53.97;;;32.47;;
75926;SDS011;64605;48.296;16.416;2022-12-29T15:39:28;53.22;;;32.58;;
75926;SDS011;64605;48.296;16.416;2022-12-29T15:41:56;53.10;;;31.40;;
75926;SDS011;64605;48.296;16.416;2022-12-29T15:47:20;52.83;;;33.60;;
75926;SDS011;64605;48.296;16.416;2022-12-29T15:49:48;58.17;;;34.38;;
75926;SDS011;64605;48.296;16.416;2022-12-29T15:52:17;55.85;;;32.63;;
75926;SDS011;64605;48.296;16.416;2022-12-29T15:54:45;55.17;;;33.55;;
75926;SDS011;64605;48.296;16.416;2022-12-29T15:57:30;57.60;;;35.80;;
75926;SDS011;64605;48.296;16.416;2022-12-29T16:00:22;57.78;;;36.05;;
75926;SDS011;64605;48.296;16.416;2022-12-29T16:02:50;59.17;;;34.92;;
75926;SDS011;64605;48.296;16.416;2022-12-29T16:05:17;60.35;;;35.72;;
75926;SDS011;64605;48.296;16.416;2022-12-29T16:07:53;59.78;;;35.55;;
75926;SDS011;64605;48.296;16.416;2022-12-29T16:10:36;64.25;;;37.90;;
75926;SDS011;64605;48.296;16.416;2022-12-29T16:13:19;66.75;;;37.55;;
75926;SDS011;64605;48.296;16.416;2022-12-29T16:15:59;58.63;;;33.67;;
75926;SDS011;64605;48.296;16.416;2022-12-29T16:18:53;54.90;;;33.08;;
75926;SDS011;64605;48.296;16.416;2022-12-29T16:21:21;58.55;;;33.92;;
75926;SDS011;64605;48.296;16.416;2022-12-29T16:23:55;56.20;;;33.08;;
75926;SDS011;64605;48.296;16.416;2022-12-29T16:26:26;55.42;;;32.63;;
75926;SDS011;64605;48.296;16.416;2022-12-29T16:28:54;59.22;;;34.65;;
75926;SDS011;64605;48.296;16.416;2022-12-29T16:31:23;60.17;;;33.40;;
75926;SDS011;64605;48.296;16.416;2022-12-29T16:33:57;56.30;;;32.67;;
75926;SDS011;64605;48.296;16.416;2022-12-29T16:36:34;58.95;;;34.85;;
75926;SDS011;64605;48.296;16.416;2022-12-29T16:41:36;62.47;;;35.92;;
75926;SDS011;64605;48.296;16.416;2022-12-29T16:44:18;60.20;;;32.80;;
75926;SDS011;64605;48.296;16.416;2022-12-29T16:49:53;57.63;;;33.88;;
75926;SDS011;64605;48.296;16.416;2022-12-29T16:52:30;61.40;;;36.13;;
75926;SDS011;64605;48.296;16.416;2022-12-29T16:54:59;68.10;;;37.83;;
75926;SDS011;64605;48.296;16.416;2022-12-29T16:57:29;75.30;;;40.30;;